Terminal Aerodrome Forecast
Issued by NWS

Home | Current Version | Previous Version | Text Only | Print | Product List | Glossary On
Versions: 1 2 3 4 5 6 7 8 9 10 11 12 13 14 15 16 17 18 19 20 21 22 23 24 25 26 27 28 29 30 31 32 33 34 35 36
000
FTUS45 KBOU 060520
TAFAPA
TAF
KAPA 060520Z 0606/0706 09010KT P6SM SCT070 BKN120
     FM060900 03007KT P6SM SCT060 BKN110
     FM061800 12012KT P6SM SCT050 BKN100
     FM062200 10012KT P6SM SCT025 OVC050 PROB30 0622/0624 2SM -SN BR
      BKN020
     FM070000 07010KT 2SM -SN BR SCT005 OVC010
     FM070300 03008KT 3/4SM -SN BR SCT003 OVC005=

USA.gov is the U.S. government's official web portal to all federal, state and local government web resources and services.